createdAt,value
2018-07-02T00:00:19.832Z,10.71
2018-07-02T00:01:19.862Z,10.76
2018-07-02T00:02:19.858Z,10.74
2018-07-02T00:03:19.832Z,10.73
2018-07-02T00:04:19.840Z,10.65
2018-07-02T00:05:19.838Z,10.62
2018-07-02T00:06:19.834Z,10.60
2018-07-02T00:07:19.839Z,10.60
2018-07-02T00:08:19.890Z,10.68
2018-07-02T00:09:19.839Z,10.68
2018-07-02T00:10:19.838Z,10.60
2018-07-02T00:11:19.894Z,10.62
2018-07-02T00:12:19.800Z,10.53
2018-07-02T00:13:19.819Z,10.44
2018-07-02T00:14:19.822Z,10.44
2018-07-02T00:15:19.825Z,10.37
2018-07-02T00:16:19.837Z,10.32
2018-07-02T00:17:19.821Z,10.26
2018-07-02T00:18:19.841Z,10.18
2018-07-02T00:19:19.864Z,10.28
2018-07-02T00:20:19.818Z,10.19
2018-07-02T00:21:19.858Z,10.24
2018-07-02T00:22:19.824Z,10.24
2018-07-02T00:23:19.849Z,10.21
2018-07-02T00:24:19.806Z,10.17
2018-07-02T00:25:19.823Z,10.25
2018-07-02T00:26:19.818Z,10.15
2018-07-02T00:27:19.821Z,10.14
2018-07-02T00:28:19.807Z,10.18
2018-07-02T00:29:19.824Z,10.10
2018-07-02T00:30:19.838Z,10.03
2018-07-02T00:31:19.829Z,10.09
2018-07-02T00:32:19.833Z,10.14
2018-07-02T00:33:19.820Z,10.14
2018-07-02T00:34:19.806Z,10.15
2018-07-02T00:35:19.777Z,10.07
2018-07-02T00:36:19.823Z,10.10
2018-07-02T00:37:19.802Z,10.15
2018-07-02T00:38:19.803Z,10.15
2018-07-02T00:39:19.858Z,10.10
2018-07-02T00:40:19.794Z,10.21
2018-07-02T00:41:19.845Z,10.14
2018-07-02T00:42:19.834Z,10.21
2018-07-02T00:43:19.830Z,10.21
2018-07-02T00:44:19.803Z,10.19
2018-07-02T00:45:19.774Z,10.19
2018-07-02T00:46:19.822Z,10.21
2018-07-02T00:47:19.790Z,10.19
2018-07-02T00:48:19.803Z,10.19
2018-07-02T00:49:19.756Z,10.21
2018-07-02T00:50:19.788Z,10.19
2018-07-02T00:51:19.774Z,10.15
2018-07-02T00:52:19.772Z,10.14
2018-07-02T00:53:19.773Z,10.24
2018-07-02T00:54:19.763Z,10.15
2018-07-02T00:55:19.773Z,10.07
2018-07-02T00:56:19.775Z,9.94
2018-07-02T00:57:19.770Z,9.94
2018-07-02T00:58:19.743Z,9.83
2018-07-02T00:59:19.771Z,9.94
2018-07-02T01:00:19.753Z,9.91
2018-07-02T01:01:19.819Z,9.88
2018-07-02T01:02:19.737Z,9.81
2018-07-02T01:03:19.742Z,9.89
2018-07-02T01:04:19.753Z,9.83
2018-07-02T01:05:19.765Z,9.88
2018-07-02T01:06:19.766Z,9.81
2018-07-02T01:07:19.818Z,9.73
2018-07-02T01:08:19.790Z,9.70
2018-07-02T01:09:19.797Z,9.67
2018-07-02T01:10:19.779Z,9.78
2018-07-02T01:11:19.774Z,9.76
2018-07-02T01:12:19.751Z,9.71
2018-07-02T01:13:19.745Z,9.68
2018-07-02T01:14:19.765Z,9.64
2018-07-02T01:15:19.761Z,9.66
2018-07-02T01:16:19.752Z,9.68
2018-07-02T01:17:19.782Z,9.52
2018-07-02T01:18:19.731Z,9.53
2018-07-02T01:19:19.740Z,9.45
2018-07-02T01:20:19.739Z,9.45
2018-07-02T01:21:19.768Z,9.46
2018-07-02T01:22:19.878Z,9.43
2018-07-02T01:23:19.735Z,9.53
2018-07-02T01:24:19.791Z,9.57
2018-07-02T01:25:19.794Z,9.45
2018-07-02T01:26:19.729Z,9.50
2018-07-02T01:27:19.742Z,9.57
2018-07-02T01:28:19.728Z,9.49
2018-07-02T01:29:19.727Z,9.58
2018-07-02T01:30:19.715Z,9.46
2018-07-02T01:31:19.744Z,9.48
2018-07-02T01:32:19.723Z,9.43
2018-07-02T01:33:19.707Z,9.45
2018-07-02T01:34:19.743Z,9.35
2018-07-02T01:35:19.736Z,9.34
2018-07-02T01:36:19.726Z,9.31
2018-07-02T01:37:19.704Z,9.27
2018-07-02T01:38:19.712Z,9.30
2018-07-02T01:39:19.744Z,9.21
2018-07-02T01:40:19.803Z,9.24
2018-07-02T01:41:19.714Z,9.23
2018-07-02T01:42:19.721Z,9.28
2018-07-02T01:43:19.731Z,9.31
2018-07-02T01:44:19.717Z,9.23
2018-07-02T01:45:19.743Z,9.28
2018-07-02T01:46:19.709Z,9.30
2018-07-02T01:47:19.705Z,9.31
2018-07-02T01:48:19.683Z,9.34
2018-07-02T01:49:19.663Z,9.28
2018-07-02T01:50:19.744Z,9.27
2018-07-02T01:51:19.690Z,9.27
2018-07-02T01:52:19.685Z,9.24
2018-07-02T01:53:19.682Z,9.32
2018-07-02T01:54:19.681Z,9.16
2018-07-02T01:55:19.673Z,9.15
2018-07-02T01:56:19.722Z,9.12
2018-07-02T01:57:19.731Z,9.02
2018-07-02T01:58:19.740Z,8.96
2018-07-02T01:59:19.702Z,9.05
2018-07-02T02:00:19.657Z,9.02
2018-07-02T02:01:19.670Z,8.96
2018-07-02T02:02:19.638Z,8.88
2018-07-02T02:03:19.655Z,8.97
2018-07-02T02:04:19.668Z,8.93
2018-07-02T02:05:19.680Z,9.02
2018-07-02T02:06:19.657Z,9.09
2018-07-02T02:07:19.620Z,9.10
2018-07-02T02:08:19.657Z,9.13
2018-07-02T02:09:19.634Z,9.10
2018-07-02T02:10:19.675Z,9.09
2018-07-02T02:11:19.673Z,9.10
2018-07-02T02:12:19.794Z,9.09
2018-07-02T02:13:19.661Z,9.05
2018-07-02T02:14:19.655Z,8.99
2018-07-02T02:15:19.705Z,8.90
2018-07-02T02:16:19.625Z,8.88
2018-07-02T02:17:19.640Z,8.78
2018-07-02T02:18:19.704Z,8.88
2018-07-02T02:19:19.629Z,8.78
2018-07-02T02:20:19.684Z,8.86
2018-07-02T02:21:20.546Z,8.90
2018-07-02T02:22:19.625Z,8.90
2018-07-02T02:23:19.659Z,8.88
2018-07-02T02:24:19.679Z,8.97
2018-07-02T02:25:19.638Z,9.02
2018-07-02T02:26:19.603Z,9.04
2018-07-02T02:27:19.627Z,9.04
2018-07-02T02:28:19.650Z,9.06
2018-07-02T02:29:19.653Z,8.96
2018-07-02T02:30:19.616Z,8.96
2018-07-02T02:31:19.681Z,8.97
2018-07-02T02:32:19.598Z,8.96
2018-07-02T02:33:19.641Z,8.86
2018-07-02T02:34:19.586Z,8.81
2018-07-02T02:35:19.678Z,8.87
2018-07-02T02:36:19.600Z,8.76
2018-07-02T02:37:19.599Z,8.79
2018-07-02T02:38:19.640Z,8.75
2018-07-02T02:39:19.581Z,8.76
2018-07-02T02:40:19.620Z,8.93
2018-07-02T02:41:19.617Z,8.91
2018-07-02T02:42:19.582Z,8.90
2018-07-02T02:43:19.592Z,8.86
2018-07-02T02:44:19.650Z,8.84
2018-07-02T02:45:19.567Z,8.90
2018-07-02T02:46:19.601Z,8.93
2018-07-02T02:47:19.557Z,8.97
2018-07-02T02:48:19.590Z,9.02
2018-07-02T02:49:22.541Z,9.01
2018-07-02T02:50:19.586Z,9.01
2018-07-02T02:51:19.586Z,8.99
2018-07-02T02:52:19.617Z,9.09
2018-07-02T02:53:19.586Z,8.90
2018-07-02T02:54:19.605Z,8.97
2018-07-02T02:55:19.615Z,8.99
2018-07-02T02:56:19.576Z,8.83
2018-07-02T02:57:19.515Z,8.81
2018-07-02T02:58:19.603Z,8.81
2018-07-02T02:59:19.569Z,8.81
2018-07-02T03:00:19.560Z,8.73
2018-07-02T03:01:19.622Z,8.65
2018-07-02T03:02:20.545Z,8.72
2018-07-02T03:03:19.555Z,8.73
2018-07-02T03:04:19.550Z,8.72
2018-07-02T03:05:19.492Z,8.73
2018-07-02T03:06:19.507Z,8.73
2018-07-02T03:07:19.557Z,8.65
2018-07-02T03:08:19.492Z,8.68
2018-07-02T03:09:19.531Z,8.81
2018-07-02T03:10:19.511Z,8.79
2018-07-02T03:11:19.522Z,8.79
2018-07-02T03:12:19.518Z,8.76
2018-07-02T03:13:19.565Z,8.79
2018-07-02T03:14:19.601Z,8.76
2018-07-02T03:15:19.527Z,8.69
2018-07-02T03:16:19.504Z,8.73
2018-07-02T03:17:19.484Z,8.71
2018-07-02T03:18:19.474Z,8.73
2018-07-02T03:19:19.511Z,8.72
2018-07-02T03:20:19.615Z,8.71
2018-07-02T03:21:19.564Z,8.75
2018-07-02T03:22:19.585Z,8.69
2018-07-02T03:23:19.597Z,8.66
2018-07-02T03:24:19.608Z,8.68
2018-07-02T03:25:19.491Z,8.65
2018-07-02T03:26:19.518Z,8.75
2018-07-02T03:27:19.523Z,8.75
2018-07-02T03:28:19.508Z,8.73
2018-07-02T03:29:29.058Z,8.71
2018-07-02T03:31:24.498Z,8.73
2018-07-02T03:32:13.942Z,8.76
2018-07-02T03:33:14.985Z,8.69
2018-07-02T03:34:14.468Z,8.75
2018-07-02T03:35:13.877Z,8.75
2018-07-02T03:36:13.947Z,8.72
2018-07-02T03:37:16.832Z,8.72
2018-07-02T03:38:17.330Z,8.60
2018-07-02T03:39:13.779Z,8.72
2018-07-02T03:40:13.505Z,8.71
2018-07-02T03:41:15.504Z,8.71
2018-07-02T03:42:13.483Z,8.60
2018-07-02T03:43:13.523Z,8.71
2018-07-02T03:44:15.546Z,8.73
2018-07-02T03:45:15.554Z,8.71
2018-07-02T03:46:13.449Z,8.71
2018-07-02T03:47:13.512Z,8.75
2018-07-02T03:48:13.474Z,8.71
2018-07-02T03:49:13.501Z,8.72
2018-07-02T03:50:13.427Z,8.76
2018-07-02T03:51:13.428Z,8.69
2018-07-02T03:52:13.487Z,8.73
2018-07-02T03:53:13.464Z,8.72
2018-07-02T03:54:13.392Z,8.78
2018-07-02T03:55:13.410Z,8.84
2018-07-02T03:56:13.414Z,8.99
2018-07-02T03:57:13.392Z,8.94
2018-07-02T03:58:13.494Z,9.02
2018-07-02T03:59:13.455Z,9.02
2018-07-02T04:00:13.408Z,8.99
2018-07-02T04:01:13.393Z,9.10
2018-07-02T04:02:13.434Z,9.18
2018-07-02T04:03:13.410Z,9.25
2018-07-02T04:04:13.400Z,9.25
2018-07-02T04:05:13.370Z,9.27
2018-07-02T04:06:13.415Z,9.27
2018-07-02T04:07:13.433Z,9.34
2018-07-02T04:08:13.365Z,9.32
2018-07-02T04:09:14.955Z,9.48
2018-07-02T04:10:13.377Z,9.40
2018-07-02T04:11:13.438Z,9.53
2018-07-02T04:12:13.434Z,9.53
2018-07-02T04:13:13.402Z,9.58
2018-07-02T04:14:13.463Z,9.57
2018-07-02T04:15:13.965Z,9.61
2018-07-02T04:16:14.944Z,9.64
2018-07-02T04:17:13.365Z,9.68
2018-07-02T04:18:13.395Z,9.78
2018-07-02T04:19:13.336Z,9.76
2018-07-02T04:20:13.388Z,9.73
2018-07-02T04:21:13.328Z,9.91
2018-07-02T04:22:13.338Z,9.89
2018-07-02T04:23:13.395Z,9.91
2018-07-02T04:24:13.380Z,9.94
2018-07-02T04:25:13.352Z,10.00
2018-07-02T04:26:13.351Z,9.97
2018-07-02T04:27:13.386Z,9.97
2018-07-02T04:28:13.354Z,10.06
2018-07-02T04:29:13.311Z,10.12
2018-07-02T04:30:13.391Z,10.10
2018-07-02T04:31:13.337Z,10.17
2018-07-02T04:32:13.324Z,10.30
2018-07-02T04:33:13.373Z,10.28
2018-07-02T04:34:13.400Z,10.37
2018-07-02T04:35:13.332Z,10.44
2018-07-02T04:36:13.330Z,10.47
2018-07-02T04:37:13.337Z,10.53
2018-07-02T04:38:13.319Z,10.58
2018-07-02T04:39:13.333Z,10.60
2018-07-02T04:40:13.332Z,10.58
2018-07-02T04:41:13.324Z,10.51
2018-07-02T04:42:13.312Z,10.53
2018-07-02T04:43:13.289Z,10.63
2018-07-02T04:44:13.336Z,10.63
2018-07-02T04:45:13.324Z,10.62
2018-07-02T04:46:13.312Z,10.65
2018-07-02T04:47:13.296Z,10.68
2018-07-02T04:48:13.322Z,10.71
2018-07-02T04:49:13.316Z,10.77
2018-07-02T04:50:13.336Z,10.78
2018-07-02T04:51:13.319Z,10.84
2018-07-02T04:52:13.326Z,10.88
2018-07-02T04:53:13.297Z,10.95
2018-07-02T04:54:13.306Z,10.98
2018-07-02T04:55:13.310Z,11.02
2018-07-02T04:56:13.295Z,11.13
2018-07-02T04:57:13.300Z,11.11
2018-07-02T04:58:13.317Z,11.20
2018-07-02T04:59:13.401Z,11.25
2018-07-02T05:00:13.316Z,11.34
2018-07-02T05:01:13.319Z,11.35
2018-07-02T05:02:13.344Z,11.39
2018-07-02T05:03:13.322Z,11.52
2018-07-02T05:04:13.315Z,11.49
2018-07-02T05:05:13.381Z,11.50
2018-07-02T05:06:13.312Z,11.57
2018-07-02T05:07:13.325Z,11.64
2018-07-02T05:08:13.337Z,11.68
2018-07-02T05:09:13.324Z,11.78
2018-07-02T05:10:13.300Z,11.82
2018-07-02T05:11:13.317Z,11.78
2018-07-02T05:12:13.322Z,11.82
2018-07-02T05:13:13.313Z,12.02
2018-07-02T05:14:13.345Z,11.97
2018-07-02T05:15:13.402Z,12.05
2018-07-02T05:16:13.281Z,12.19
2018-07-02T05:17:13.295Z,12.26
2018-07-02T05:18:13.319Z,12.29
2018-07-02T05:19:13.603Z,12.45
2018-07-02T05:20:13.512Z,12.49
2018-07-02T05:21:13.379Z,12.74
2018-07-02T05:22:17.908Z,12.74
2018-07-02T05:23:13.360Z,12.88
2018-07-02T05:24:14.598Z,12.92
2018-07-02T05:25:13.277Z,13.00
2018-07-02T05:26:13.292Z,13.06
2018-07-02T05:27:13.273Z,13.11
2018-07-02T05:28:13.309Z,13.21
2018-07-02T05:29:13.337Z,13.32
2018-07-02T05:30:13.286Z,13.41
2018-07-02T05:31:13.279Z,13.47
2018-07-02T05:32:13.287Z,13.52
2018-07-02T05:33:13.270Z,13.63
2018-07-02T05:34:13.279Z,13.71
2018-07-02T05:35:13.243Z,13.67
2018-07-02T05:36:13.259Z,13.80
2018-07-02T05:37:13.295Z,13.71
2018-07-02T05:38:13.264Z,13.76
2018-07-02T05:39:13.282Z,13.88
2018-07-02T05:40:13.264Z,13.91
2018-07-02T05:41:13.277Z,13.95
2018-07-02T05:42:13.279Z,13.99
2018-07-02T05:43:13.275Z,14.10
2018-07-02T05:44:13.268Z,14.16
2018-07-02T05:45:13.265Z,14.44
2018-07-02T05:46:13.263Z,14.60
2018-07-02T05:47:13.250Z,14.74
2018-07-02T05:48:13.321Z,14.90
2018-07-02T05:49:13.265Z,15.02
2018-07-02T05:50:13.276Z,15.11
2018-07-02T05:51:13.280Z,15.12
2018-07-02T05:52:13.302Z,15.17
2018-07-02T05:53:13.284Z,15.39
2018-07-02T05:54:13.252Z,15.54
2018-07-02T05:55:13.309Z,15.54
2018-07-02T05:56:13.272Z,15.72
2018-07-02T05:57:13.267Z,15.70
2018-07-02T05:58:13.304Z,15.82
2018-07-02T05:59:13.360Z,15.88
2018-07-02T06:00:13.371Z,15.96
2018-07-02T06:01:13.295Z,15.93
2018-07-02T06:02:13.306Z,15.79
2018-07-02T06:03:13.266Z,15.78
2018-07-02T06:04:13.292Z,15.92
2018-07-02T06:05:13.270Z,15.92
2018-07-02T06:06:13.282Z,16.04
2018-07-02T06:07:13.295Z,16.06
2018-07-02T06:08:13.305Z,16.07
2018-07-02T06:09:13.399Z,16.15
2018-07-02T06:10:13.294Z,16.01
2018-07-02T06:11:13.286Z,16.04
2018-07-02T06:12:13.304Z,16.01
2018-07-02T06:13:13.325Z,16.14
2018-07-02T06:14:13.273Z,16.27
2018-07-02T06:15:13.285Z,16.20
2018-07-02T06:16:13.328Z,16.33
2018-07-02T06:17:13.309Z,16.45
2018-07-02T06:18:13.280Z,16.53
2018-07-02T06:19:13.316Z,16.63
2018-07-02T06:20:13.303Z,16.70
2018-07-02T06:21:13.334Z,16.86
2018-07-02T06:22:13.327Z,16.99
2018-07-02T06:23:13.306Z,17.10
2018-07-02T06:24:13.294Z,17.22
2018-07-02T06:25:13.302Z,17.14
2018-07-02T06:26:13.302Z,17.17
2018-07-02T06:27:13.326Z,17.43
2018-07-02T06:28:13.313Z,17.84
2018-07-02T06:29:13.330Z,18.34
2018-07-02T06:30:13.329Z,18.77
2018-07-02T06:31:13.349Z,19.48
2018-07-02T06:32:13.347Z,20.24
2018-07-02T06:33:13.347Z,20.89
2018-07-02T06:34:13.318Z,21.79
2018-07-02T06:35:13.346Z,22.10
2018-07-02T06:36:13.349Z,22.60
2018-07-02T06:37:13.351Z,23.29
2018-07-02T06:38:13.328Z,23.83
2018-07-02T06:39:13.334Z,24.14
2018-07-02T06:40:13.335Z,24.45
2018-07-02T06:41:13.338Z,24.64
2018-07-02T06:42:13.346Z,25.01
2018-07-02T06:43:13.349Z,25.15
2018-07-02T06:44:13.356Z,25.38
2018-07-02T06:45:13.506Z,25.37
2018-07-02T06:46:13.397Z,25.56
2018-07-02T06:47:13.398Z,25.54
2018-07-02T06:48:13.422Z,25.68
2018-07-02T06:49:13.414Z,25.52
2018-07-02T06:50:13.411Z,25.69
2018-07-02T06:51:13.433Z,25.24
2018-07-02T06:52:13.418Z,24.59
2018-07-02T06:53:13.436Z,24.79
2018-07-02T06:54:13.449Z,25.13
2018-07-02T06:55:13.443Z,25.53
2018-07-02T06:56:13.426Z,25.82
2018-07-02T06:57:13.430Z,25.77
2018-07-02T06:58:13.469Z,25.50
2018-07-02T06:59:13.461Z,25.64
2018-07-02T07:00:13.477Z,25.80
2018-07-02T07:01:13.488Z,25.89
2018-07-02T07:02:13.494Z,25.69
2018-07-02T07:03:13.494Z,25.54
2018-07-02T07:04:13.495Z,25.27
2018-07-02T07:05:13.514Z,24.92
2018-07-02T07:06:13.512Z,25.30
2018-07-02T07:07:13.551Z,25.19
2018-07-02T07:08:13.523Z,24.92
2018-07-02T07:09:13.503Z,25.16
2018-07-02T07:10:13.523Z,25.43
2018-07-02T07:11:13.552Z,25.28
2018-07-02T07:12:13.520Z,25.72
2018-07-02T07:13:13.550Z,25.87
2018-07-02T07:14:13.644Z,25.42
2018-07-02T07:15:13.543Z,25.16
2018-07-02T07:16:13.634Z,25.25
2018-07-02T07:17:13.614Z,25.57
2018-07-02T07:18:13.638Z,25.84
2018-07-02T07:19:14.587Z,26.02
2018-07-02T07:20:13.638Z,26.22
2018-07-02T07:21:13.635Z,26.37
2018-07-02T07:22:13.622Z,25.61
2018-07-02T07:23:13.669Z,25.86
2018-07-02T07:24:13.647Z,25.74
2018-07-02T07:25:13.656Z,25.59
2018-07-02T07:26:15.457Z,25.39
2018-07-02T07:27:13.687Z,24.94
2018-07-02T07:28:13.671Z,24.19
2018-07-02T07:29:13.678Z,24.57
2018-07-02T07:30:13.712Z,24.14
2018-07-02T07:31:13.714Z,24.59
2018-07-02T07:32:13.705Z,24.83
2018-07-02T07:33:13.704Z,24.91
2018-07-02T07:34:13.782Z,24.68
2018-07-02T07:35:13.800Z,24.92
2018-07-02T07:36:13.735Z,24.95
2018-07-02T07:37:13.763Z,25.13
2018-07-02T07:38:13.758Z,25.07
2018-07-02T07:39:13.770Z,25.30
2018-07-02T07:40:13.788Z,25.64
2018-07-02T07:41:13.787Z,25.83
2018-07-02T07:42:13.801Z,26.09
2018-07-02T07:43:13.776Z,26.05
2018-07-02T07:44:13.842Z,24.91
2018-07-02T07:45:13.797Z,24.41
2018-07-02T07:46:13.830Z,24.63
2018-07-02T07:47:13.847Z,24.19
2018-07-02T07:48:13.818Z,24.27
2018-07-02T07:49:13.831Z,24.32
2018-07-02T07:50:15.530Z,24.02
2018-07-02T07:51:21.334Z,23.39
2018-07-02T07:53:08.705Z,22.84
2018-07-02T07:54:09.166Z,23.09
2018-07-02T07:56:01.681Z,22.97
2018-07-02T07:57:01.413Z,23.01
2018-07-02T07:58:54.861Z,22.87
2018-07-02T07:59:54.768Z,23.02
2018-07-02T08:01:48.911Z,23.04
2018-07-02T08:02:48.859Z,23.24
2018-07-02T08:04:42.814Z,22.90
2018-07-02T08:05:42.893Z,22.80
2018-07-02T08:07:36.712Z,23.01
2018-07-02T08:08:36.976Z,23.01
2018-07-02T08:10:32.433Z,23.17
2018-07-02T08:11:31.463Z,23.29
2018-07-02T08:12:31.551Z,23.14
2018-07-02T08:13:31.477Z,23.15
2018-07-02T08:14:31.276Z,22.86
2018-07-02T08:15:31.430Z,23.02
2018-07-02T08:16:31.200Z,23.34
2018-07-02T08:17:31.183Z,23.58
2018-07-02T08:18:31.283Z,23.42
2018-07-02T08:19:31.297Z,23.39
2018-07-02T08:20:31.223Z,23.01
2018-07-02T08:21:31.216Z,22.56
2018-07-02T08:22:31.230Z,22.64
2018-07-02T08:23:33.077Z,22.72
2018-07-02T08:24:31.346Z,22.62
2018-07-02T08:25:31.277Z,22.67
2018-07-02T08:26:31.286Z,22.93
2018-07-02T08:27:31.323Z,23.01
2018-07-02T08:28:31.320Z,23.01
2018-07-02T08:29:31.385Z,22.90
2018-07-02T08:30:31.306Z,22.83
2018-07-02T08:31:31.363Z,23.07
2018-07-02T08:32:31.472Z,23.24
2018-07-02T08:33:31.321Z,23.26
2018-07-02T08:34:31.387Z,23.04
2018-07-02T08:35:33.085Z,23.15
2018-07-02T08:36:31.379Z,22.46
2018-07-02T08:37:31.384Z,22.31
2018-07-02T08:38:31.378Z,22.28
2018-07-02T08:39:33.041Z,22.54
2018-07-02T08:40:31.543Z,22.82
2018-07-02T08:41:31.534Z,23.07
2018-07-02T08:42:31.459Z,22.96
2018-07-02T08:43:31.520Z,22.92
2018-07-02T08:44:31.483Z,22.96
2018-07-02T08:45:31.495Z,22.97
2018-07-02T08:46:31.504Z,23.08
2018-07-02T08:47:31.524Z,23.35
2018-07-02T08:48:31.499Z,23.26
2018-07-02T08:49:31.543Z,22.78
2018-07-02T08:50:31.561Z,22.59
2018-07-02T08:51:31.555Z,22.82
2018-07-02T08:52:33.744Z,23.15
2018-07-02T08:53:31.539Z,23.34
2018-07-02T08:54:31.617Z,23.55
2018-07-02T08:55:31.591Z,23.62
2018-07-02T08:56:31.664Z,23.82
2018-07-02T08:57:31.586Z,23.72
2018-07-02T08:58:34.534Z,23.60
2018-07-02T08:59:31.692Z,23.70
2018-07-02T09:00:31.651Z,23.87
2018-07-02T09:01:31.765Z,24.12
2018-07-02T09:02:31.674Z,24.04
2018-07-02T09:03:33.511Z,24.02
2018-07-02T09:04:33.686Z,23.53
2018-07-02T09:05:31.707Z,23.32
2018-07-02T09:06:31.719Z,23.04
2018-07-02T09:07:31.738Z,22.92
2018-07-02T09:08:31.736Z,23.11
2018-07-02T09:09:31.832Z,23.27
2018-07-02T09:10:31.740Z,22.97
2018-07-02T09:11:31.757Z,22.96
2018-07-02T09:12:31.832Z,22.99
2018-07-02T09:13:31.868Z,23.04
2018-07-02T09:14:31.792Z,23.02
2018-07-02T09:15:31.798Z,23.19
2018-07-02T09:16:31.822Z,23.57
2018-07-02T09:17:31.829Z,24.00
2018-07-02T09:18:31.825Z,24.29
2018-07-02T09:19:31.810Z,24.19
2018-07-02T09:20:31.863Z,24.00
2018-07-02T09:21:31.856Z,23.29
2018-07-02T09:22:31.860Z,23.27
2018-07-02T09:23:31.845Z,23.23
2018-07-02T09:24:31.911Z,23.53
2018-07-02T09:25:33.588Z,23.79
2018-07-02T09:26:31.918Z,23.92
2018-07-02T09:27:31.907Z,24.04
2018-07-02T09:28:31.919Z,24.04
2018-07-02T09:29:31.898Z,23.86
2018-07-02T09:30:31.897Z,23.89
2018-07-02T09:31:31.943Z,24.04
2018-07-02T09:32:31.924Z,23.42
2018-07-02T09:33:31.920Z,23.55
2018-07-02T09:34:31.946Z,23.60
2018-07-02T09:35:31.937Z,23.60
2018-07-02T09:36:31.946Z,23.64
2018-07-02T09:37:31.952Z,23.31
2018-07-02T09:38:31.957Z,23.07
2018-07-02T09:39:31.967Z,22.93
2018-07-02T09:40:31.973Z,23.11
2018-07-02T09:41:31.987Z,23.45
2018-07-02T09:42:31.995Z,23.79
2018-07-02T09:43:32.018Z,24.12
2018-07-02T09:44:32.004Z,24.23
2018-07-02T09:45:32.026Z,24.23
2018-07-02T09:46:32.051Z,24.20
2018-07-02T09:47:32.038Z,24.16
2018-07-02T09:48:32.061Z,24.02
2018-07-02T09:49:32.086Z,23.85
2018-07-02T09:50:32.074Z,23.87
2018-07-02T09:51:32.066Z,23.87
2018-07-02T09:52:32.102Z,23.92
2018-07-02T09:53:32.106Z,24.16
2018-07-02T09:54:32.112Z,24.57
2018-07-02T09:55:32.085Z,24.87
2018-07-02T09:56:32.141Z,24.32
2018-07-02T09:57:32.115Z,24.47
2018-07-02T09:58:32.155Z,24.73
2018-07-02T09:59:32.112Z,24.83
2018-07-02T10:00:32.151Z,24.87
2018-07-02T10:01:32.161Z,24.83
2018-07-02T10:02:32.169Z,24.68
2018-07-02T10:03:32.197Z,24.61
2018-07-02T10:04:32.182Z,24.71
2018-07-02T10:05:32.183Z,24.91
2018-07-02T10:06:32.206Z,25.09
2018-07-02T10:07:32.202Z,25.19
2018-07-02T10:08:32.180Z,25.24
2018-07-02T10:09:34.035Z,25.30
2018-07-02T10:10:34.067Z,25.30
2018-07-02T10:11:35.064Z,24.90
2018-07-02T10:12:32.301Z,24.79
2018-07-02T10:13:32.457Z,24.94
2018-07-02T10:14:32.306Z,24.88
2018-07-02T10:15:32.253Z,25.00
2018-07-02T10:16:32.260Z,24.60
2018-07-02T10:17:32.281Z,24.47
2018-07-02T10:18:32.248Z,24.20
2018-07-02T10:19:32.324Z,24.27
2018-07-02T10:20:32.342Z,24.38
2018-07-02T10:21:32.285Z,24.41
2018-07-02T10:22:32.276Z,24.04
2018-07-02T10:23:37.332Z,23.53
2018-07-02T10:24:32.298Z,23.76
2018-07-02T10:25:32.328Z,24.16
2018-07-02T10:26:32.328Z,24.56
2018-07-02T10:27:32.318Z,24.77
2018-07-02T10:28:32.359Z,24.97
2018-07-02T10:29:32.354Z,24.92
2018-07-02T10:30:32.368Z,25.00
2018-07-02T10:31:32.344Z,25.06
2018-07-02T10:32:32.375Z,24.83
2018-07-02T10:33:32.376Z,24.97
2018-07-02T10:34:32.364Z,25.02
2018-07-02T10:35:32.404Z,25.22
2018-07-02T10:36:32.423Z,25.27
2018-07-02T10:37:32.425Z,25.05
2018-07-02T10:38:32.420Z,25.10
2018-07-02T10:39:32.435Z,25.37
2018-07-02T10:40:32.407Z,25.43
2018-07-02T10:41:32.428Z,25.57
2018-07-02T10:42:32.466Z,25.54
2018-07-02T10:43:32.436Z,25.67
2018-07-02T10:44:32.546Z,25.72
2018-07-02T10:45:32.440Z,25.71
2018-07-02T10:46:32.475Z,25.31
2018-07-02T10:47:32.473Z,25.28
2018-07-02T10:48:32.489Z,25.35
2018-07-02T10:49:32.469Z,25.42
2018-07-02T10:50:32.505Z,25.05
2018-07-02T10:51:33.008Z,25.12
2018-07-02T10:52:34.076Z,25.06
2018-07-02T10:53:32.503Z,25.20
2018-07-02T10:54:32.531Z,25.27
2018-07-02T10:55:32.607Z,25.53
2018-07-02T10:56:32.558Z,25.30
2018-07-02T10:57:34.074Z,24.80
2018-07-02T10:58:32.537Z,24.91
2018-07-02T10:59:32.571Z,24.95
2018-07-02T11:00:32.579Z,24.92
2018-07-02T11:01:32.556Z,25.25
2018-07-02T11:02:32.563Z,25.50
2018-07-02T11:03:32.572Z,25.39
2018-07-02T11:04:32.579Z,25.43
2018-07-02T11:05:32.612Z,25.68
2018-07-02T11:06:32.622Z,25.64
2018-07-02T11:07:34.558Z,25.64
2018-07-02T11:08:32.604Z,25.39
2018-07-02T11:09:32.636Z,25.42
2018-07-02T11:10:32.625Z,25.56
2018-07-02T11:11:32.630Z,25.61
2018-07-02T11:12:32.634Z,25.43
2018-07-02T11:13:32.652Z,25.50
2018-07-02T11:14:32.712Z,25.61
2018-07-02T11:15:32.688Z,25.77
2018-07-02T11:16:32.721Z,25.80
2018-07-02T11:17:32.670Z,26.02
2018-07-02T11:18:32.682Z,26.18
2018-07-02T11:19:32.746Z,26.25
2018-07-02T11:20:32.736Z,26.28
2018-07-02T11:21:32.729Z,25.89
2018-07-02T11:22:32.739Z,25.67
2018-07-02T11:23:32.810Z,25.65
2018-07-02T11:24:32.790Z,25.42
2018-07-02T11:25:32.826Z,25.61
2018-07-02T11:26:32.797Z,25.65
2018-07-02T11:27:32.776Z,25.16
2018-07-02T11:28:32.779Z,25.09
2018-07-02T11:29:32.781Z,24.94
2018-07-02T11:30:32.800Z,24.90
2018-07-02T11:31:32.810Z,24.82
2018-07-02T11:32:32.780Z,24.98
2018-07-02T11:33:32.786Z,24.98
2018-07-02T11:34:32.883Z,25.07
2018-07-02T11:35:32.878Z,25.24
2018-07-02T11:36:32.861Z,25.25
2018-07-02T11:37:32.881Z,25.24
2018-07-02T11:38:32.883Z,25.28
2018-07-02T11:39:32.863Z,25.44
2018-07-02T11:40:32.834Z,25.35
2018-07-02T11:41:32.883Z,25.53
2018-07-02T11:42:32.933Z,25.84
2018-07-02T11:43:32.864Z,26.25
2018-07-02T11:44:32.864Z,26.29
2018-07-02T11:45:32.873Z,26.50
2018-07-02T11:46:32.903Z,26.49
2018-07-02T11:47:32.896Z,26.49
2018-07-02T11:48:32.985Z,26.52
2018-07-02T11:49:33.014Z,26.37
2018-07-02T11:50:32.943Z,25.91
2018-07-02T11:51:32.962Z,26.04
2018-07-02T11:52:32.958Z,26.04
2018-07-02T11:53:32.987Z,26.08
2018-07-02T11:54:33.004Z,26.40
2018-07-02T11:55:32.980Z,26.72
2018-07-02T11:56:33.052Z,26.98
2018-07-02T11:57:33.118Z,27.14
2018-07-02T11:58:33.001Z,27.16
2018-07-02T11:59:33.013Z,26.50
2018-07-02T12:00:33.058Z,26.40
2018-07-02T12:01:33.007Z,26.28
2018-07-02T12:02:33.668Z,26.17
2018-07-02T12:03:33.103Z,26.31
2018-07-02T12:04:33.076Z,25.97
2018-07-02T12:05:33.049Z,25.91
2018-07-02T12:06:33.230Z,26.01
2018-07-02T12:07:33.092Z,26.28
2018-07-02T12:08:33.118Z,26.43
2018-07-02T12:09:33.074Z,26.42
2018-07-02T12:10:33.111Z,26.42
2018-07-02T12:11:33.134Z,26.24
2018-07-02T12:12:33.086Z,26.20
2018-07-02T12:13:34.095Z,26.08
2018-07-02T12:14:33.122Z,25.80
2018-07-02T12:15:33.120Z,25.79
2018-07-02T12:16:33.147Z,25.94
2018-07-02T12:17:33.205Z,25.84
2018-07-02T12:18:33.142Z,25.93
2018-07-02T12:19:33.127Z,26.01
2018-07-02T12:20:33.137Z,26.22
2018-07-02T12:21:33.178Z,26.44
2018-07-02T12:22:33.181Z,26.77
2018-07-02T12:23:33.216Z,27.02
2018-07-02T12:24:33.178Z,26.98
2018-07-02T12:25:33.208Z,26.96
2018-07-02T12:26:33.207Z,26.79
2018-07-02T12:27:33.217Z,26.83
2018-07-02T12:28:33.188Z,26.99
2018-07-02T12:29:33.225Z,26.92
2018-07-02T12:30:33.214Z,26.95
2018-07-02T12:31:33.224Z,26.99
2018-07-02T12:32:33.238Z,27.10
2018-07-02T12:33:33.291Z,26.65
2018-07-02T12:34:33.276Z,26.24
2018-07-02T12:35:33.271Z,26.09
2018-07-02T12:36:33.259Z,25.86
2018-07-02T12:37:33.260Z,25.87
2018-07-02T12:38:33.287Z,26.24
2018-07-02T12:39:33.294Z,26.52
2018-07-02T12:40:33.281Z,26.76
2018-07-02T12:41:33.325Z,26.62
2018-07-02T12:42:33.324Z,26.49
2018-07-02T12:43:33.304Z,26.36
2018-07-02T12:44:33.341Z,26.17
2018-07-02T12:45:33.346Z,25.69
2018-07-02T12:46:33.342Z,25.34
2018-07-02T12:47:33.335Z,25.52
2018-07-02T12:48:33.345Z,25.61
2018-07-02T12:49:33.385Z,25.80
2018-07-02T12:50:33.361Z,25.93
2018-07-02T12:51:33.363Z,25.84
2018-07-02T12:52:33.403Z,25.87
2018-07-02T12:53:33.418Z,25.87
2018-07-02T12:54:33.391Z,26.04
2018-07-02T12:55:33.390Z,26.22
2018-07-02T12:56:33.400Z,26.40
2018-07-02T12:57:33.401Z,26.67
2018-07-02T12:58:33.415Z,26.91
2018-07-02T12:59:33.419Z,26.69
2018-07-02T13:00:33.464Z,26.36
2018-07-02T13:01:33.460Z,26.50
2018-07-02T13:02:33.441Z,26.08
2018-07-02T13:03:33.482Z,25.89
2018-07-02T13:04:33.480Z,26.17
2018-07-02T13:05:33.525Z,26.29
2018-07-02T13:06:33.493Z,26.32